createdAt,value
2023-04-29T00:01:09.869Z,11.10
2023-04-29T00:06:15.323Z,10.43
2023-04-29T00:11:20.943Z,11.18
2023-04-29T00:16:29.236Z,10.10
2023-04-29T00:21:34.835Z,8.55
2023-04-29T00:26:41.667Z,8.45
2023-04-29T00:31:49.476Z,11.30
2023-04-29T00:36:54.904Z,10.38
2023-04-29T00:42:00.611Z,12.77
2023-04-29T00:47:11.837Z,11.52
2023-04-29T00:52:21.307Z,9.88
2023-04-29T00:57:29.326Z,9.70
2023-04-29T01:02:37.896Z,13.13
2023-04-29T01:07:49.072Z,12.68
2023-04-29T01:13:02.098Z,13.85
2023-04-29T01:18:14.899Z,19.67
2023-04-29T01:23:20.161Z,16.98
2023-04-29T01:28:44.907Z,13.65
2023-04-29T01:33:54.121Z,9.00
2023-04-29T01:39:18.748Z,9.23
2023-04-29T01:44:27.946Z,11.93
2023-04-29T01:49:33.944Z,9.32
2023-04-29T01:54:39.466Z,8.10
2023-04-29T01:59:47.214Z,12.50
2023-04-29T02:04:52.448Z,6.93
2023-04-29T02:09:57.757Z,8.38
2023-04-29T02:15:05.615Z,9.73
2023-04-29T02:20:12.273Z,11.02
2023-04-29T02:25:17.886Z,11.25
2023-04-29T02:30:25.690Z,8.35
2023-04-29T02:35:30.992Z,10.73
2023-04-29T02:40:36.133Z,7.90
2023-04-29T02:45:43.973Z,7.07
2023-04-29T02:55:54.054Z,8.20
2023-04-29T03:01:01.959Z,7.75
2023-04-29T03:11:12.251Z,9.65
2023-04-29T03:16:20.141Z,8.40
2023-04-29T03:21:25.538Z,11.05
2023-04-29T03:26:31.237Z,9.10
2023-04-29T03:31:39.262Z,8.18
2023-04-29T03:36:44.680Z,9.18
2023-04-29T03:41:50.818Z,8.30
2023-04-29T03:46:58.701Z,6.80
2023-04-29T03:52:05.109Z,7.25
2023-04-29T03:57:10.228Z,9.32
2023-04-29T04:02:18.127Z,8.52
2023-04-29T04:07:23.418Z,6.70
2023-04-29T04:12:28.693Z,7.82
2023-04-29T04:17:36.551Z,9.02
2023-04-29T04:22:41.813Z,8.15
2023-04-29T04:27:47.155Z,9.75
2023-04-29T04:32:55.068Z,10.00
2023-04-29T04:38:01.098Z,9.75
2023-04-29T04:43:06.554Z,7.63
2023-04-29T04:48:14.686Z,9.20
2023-04-29T04:53:20.407Z,8.75
2023-04-29T04:58:27.029Z,17.67
2023-04-29T05:03:34.983Z,10.93
2023-04-29T05:08:40.437Z,9.75
2023-04-29T05:13:46.136Z,9.93
2023-04-29T05:18:54.056Z,9.15
2023-04-29T05:23:59.203Z,8.63
2023-04-29T05:29:04.411Z,8.80
2023-04-29T05:34:12.814Z,8.43
2023-04-29T05:39:18.049Z,10.25
2023-04-29T05:44:23.192Z,9.63
2023-04-29T05:49:31.333Z,8.43
2023-04-29T05:54:36.682Z,10.13
2023-04-29T05:59:42.029Z,9.80
2023-04-29T06:04:50.275Z,7.05
2023-04-29T06:09:57.296Z,11.50
2023-04-29T06:15:02.649Z,11.70
2023-04-29T06:20:12.288Z,10.10
2023-04-29T06:25:17.686Z,7.80
2023-04-29T06:30:22.947Z,9.55
2023-04-29T06:35:31.279Z,8.13
2023-04-29T06:40:36.537Z,9.05
2023-04-29T06:45:41.686Z,8.23
2023-04-29T06:50:56.237Z,7.20
2023-04-29T06:56:01.733Z,11.60
2023-04-29T07:01:09.719Z,10.05
2023-04-29T07:06:18.183Z,10.13
2023-04-29T07:11:25.149Z,8.73
2023-04-29T07:16:31.529Z,10.23
2023-04-29T07:21:39.738Z,9.43
2023-04-29T07:26:47.376Z,9.57
2023-04-29T07:31:57.409Z,9.13
2023-04-29T07:37:07.262Z,14.55
2023-04-29T07:42:13.388Z,15.63
2023-04-29T07:47:18.972Z,9.63
2023-04-29T07:52:27.322Z,8.52
2023-04-29T07:57:33.058Z,11.98
2023-04-29T08:02:39.028Z,14.70
2023-04-29T08:07:47.477Z,10.45
2023-04-29T08:12:53.633Z,12.88
2023-04-29T08:18:01.019Z,7.38
2023-04-29T08:23:09.783Z,9.70
2023-04-29T08:28:16.938Z,7.90
2023-04-29T08:33:23.217Z,11.73
2023-04-29T08:38:31.940Z,10.73
2023-04-29T08:43:41.466Z,9.98
2023-04-29T08:48:47.628Z,10.00
2023-04-29T08:53:56.042Z,9.80
2023-04-29T08:59:02.371Z,11.10
2023-04-29T09:04:17.891Z,8.48
2023-04-29T09:09:27.943Z,17.75
2023-04-29T09:14:38.235Z,14.55
2023-04-29T09:19:44.638Z,11.65
2023-04-29T09:24:52.908Z,10.80
2023-04-29T09:30:04.824Z,9.13
2023-04-29T09:35:27.095Z,9.20
2023-04-29T09:40:46.641Z,8.02
2023-04-29T09:46:02.509Z,15.35
2023-04-29T09:51:08.348Z,7.63
2023-04-29T09:56:17.875Z,7.80
2023-04-29T10:01:24.317Z,5.68
2023-04-29T10:06:30.794Z,5.85
2023-04-29T10:11:38.758Z,11.07
2023-04-29T10:16:50.011Z,10.32
2023-04-29T10:21:57.582Z,6.00
2023-04-29T10:27:06.566Z,8.88
2023-04-29T10:32:19.122Z,6.95
2023-04-29T10:37:24.574Z,11.60
2023-04-29T10:42:39.714Z,6.75
2023-04-29T10:47:45.714Z,5.50
2023-04-29T10:52:58.908Z,4.55
2023-04-29T10:58:07.787Z,8.88
2023-04-29T11:03:50.132Z,9.25
2023-04-29T11:09:07.052Z,4.68
2023-04-29T11:14:17.222Z,4.03
2023-04-29T11:19:22.678Z,5.18
2023-04-29T11:24:27.914Z,5.45
2023-04-29T11:29:36.814Z,5.13
2023-04-29T11:34:42.193Z,4.22
2023-04-29T11:39:48.148Z,3.42
2023-04-29T11:45:01.514Z,6.18
2023-04-29T11:50:08.516Z,6.15
2023-04-29T11:55:15.034Z,4.95
2023-04-29T12:00:23.879Z,5.22
2023-04-29T12:05:31.235Z,4.60
2023-04-29T12:10:39.595Z,8.23
2023-04-29T12:15:48.349Z,5.32
2023-04-29T12:20:56.299Z,5.72
2023-04-29T12:26:03.748Z,6.40
2023-04-29T12:31:13.750Z,5.20
2023-04-29T12:36:22.593Z,5.10
2023-04-29T12:41:40.567Z,5.97
2023-04-29T12:46:48.631Z,6.38
2023-04-29T12:51:54.138Z,4.50
2023-04-29T12:57:00.139Z,3.97
2023-04-29T13:02:08.825Z,4.82
2023-04-29T13:07:14.104Z,2.95
2023-04-29T13:12:19.825Z,3.90
2023-04-29T13:17:28.491Z,6.47
2023-04-29T13:22:34.595Z,5.40
2023-04-29T13:27:41.395Z,7.68
2023-04-29T13:32:54.773Z,6.22
2023-04-29T13:38:01.799Z,9.77
2023-04-29T13:43:09.295Z,6.15
2023-04-29T13:48:45.355Z,4.72
2023-04-29T13:59:36.268Z,5.38
2023-04-29T14:04:20.347Z,4.50
2023-04-29T14:09:26.817Z,4.32
2023-04-29T14:14:32.741Z,7.70
2023-04-29T14:19:40.872Z,4.43
2023-04-29T14:24:47.444Z,5.53
2023-04-29T14:29:53.159Z,4.90
2023-04-29T14:35:02.073Z,3.75
2023-04-29T14:40:09.893Z,4.00
2023-04-29T14:45:16.136Z,4.78
2023-04-29T14:50:25.648Z,3.78
2023-04-29T14:55:31.922Z,5.13
2023-04-29T15:00:37.620Z,5.85
2023-04-29T15:05:46.663Z,6.03
2023-04-29T15:10:51.838Z,4.07
2023-04-29T15:15:57.178Z,8.48
2023-04-29T15:21:05.384Z,5.60
2023-04-29T15:26:11.418Z,5.97
2023-04-29T15:31:17.297Z,3.95
2023-04-29T15:36:33.747Z,7.40
2023-04-29T15:41:39.461Z,4.47
2023-04-29T15:46:44.628Z,5.15
2023-04-29T15:51:52.677Z,4.88
2023-04-29T15:56:59.180Z,5.18
2023-04-29T16:02:08.871Z,4.47
2023-04-29T16:07:17.242Z,4.45
2023-04-29T16:12:22.498Z,3.65
2023-04-29T16:17:28.599Z,4.70
2023-04-29T16:22:37.180Z,4.25
2023-04-29T16:27:43.100Z,5.53
2023-04-29T16:32:48.834Z,5.38
2023-04-29T16:37:56.843Z,5.25
2023-04-29T16:43:02.618Z,5.85
2023-04-29T16:48:10.460Z,4.75
2023-04-29T16:53:18.983Z,8.00
2023-04-29T16:58:25.146Z,5.72
2023-04-29T17:03:32.095Z,5.50
2023-04-29T17:08:40.246Z,9.32
2023-04-29T17:13:46.181Z,6.88
2023-04-29T17:18:52.972Z,5.50
2023-04-29T17:24:01.787Z,5.45
2023-04-29T17:29:08.038Z,5.80
2023-04-29T17:34:19.394Z,4.53
2023-04-29T17:39:27.997Z,5.18
2023-04-29T17:44:33.912Z,6.38
2023-04-29T17:49:41.199Z,6.78
2023-04-29T17:59:55.549Z,7.28
2023-04-29T18:05:01.754Z,7.20
2023-04-29T18:10:12.076Z,6.90
2023-04-29T18:15:22.102Z,5.97
2023-04-29T18:20:29.018Z,4.38
2023-04-29T18:25:40.155Z,6.03
2023-04-29T18:30:47.361Z,10.52
2023-04-29T18:35:53.674Z,6.60
2023-04-29T18:41:02.510Z,5.80
2023-04-29T18:46:08.608Z,9.52
2023-04-29T18:51:14.795Z,6.35
2023-04-29T18:56:23.279Z,5.00
2023-04-29T19:01:29.355Z,5.45
2023-04-29T19:06:36.357Z,9.02
2023-04-29T19:11:44.991Z,8.98
2023-04-29T19:16:56.067Z,9.38
2023-04-29T19:22:02.262Z,28.08
2023-04-29T19:27:11.214Z,11.93
2023-04-29T19:32:17.335Z,10.60
2023-04-29T19:37:24.824Z,5.80
2023-04-29T19:42:33.580Z,9.98
2023-04-29T19:47:39.877Z,6.75
2023-04-29T19:52:46.790Z,8.95
2023-04-29T19:57:56.173Z,6.97
2023-04-29T20:03:02.278Z,8.60
2023-04-29T20:08:08.860Z,6.68
2023-04-29T20:13:17.592Z,7.57
2023-04-29T20:18:24.522Z,6.30
2023-04-29T20:23:31.363Z,6.47
2023-04-29T20:28:41.879Z,7.28
2023-04-29T20:33:48.867Z,8.55
2023-04-29T20:38:55.828Z,9.68
2023-04-29T20:44:04.495Z,8.52
2023-04-29T20:49:10.517Z,10.10
2023-04-29T20:54:16.827Z,10.73
2023-04-29T20:59:25.424Z,14.00
2023-04-29T21:04:33.305Z,9.20
2023-04-29T21:09:39.931Z,11.07
2023-04-29T21:14:49.920Z,14.38
2023-04-29T21:19:56.543Z,14.32
2023-04-29T21:25:02.442Z,14.57
2023-04-29T21:30:12.469Z,13.25
2023-04-29T21:35:18.462Z,12.88
2023-04-29T21:40:24.789Z,13.15
2023-04-29T21:45:33.311Z,14.05
2023-04-29T21:50:39.180Z,11.95
2023-04-29T21:55:45.155Z,12.70
2023-04-29T22:00:59.492Z,14.70
2023-04-29T22:06:04.797Z,13.52
2023-04-29T22:11:10.034Z,15.05
2023-04-29T22:16:19.167Z,13.88
2023-04-29T22:21:24.436Z,12.43
2023-04-29T22:26:29.628Z,13.35
2023-04-29T22:31:37.320Z,13.45
2023-04-29T22:41:47.757Z,16.88
2023-04-29T22:46:55.546Z,13.40
2023-04-29T22:52:01.236Z,14.38
2023-04-29T22:57:07.930Z,13.52
2023-04-29T23:02:16.403Z,12.38
2023-04-29T23:07:23.169Z,16.05
2023-04-29T23:12:30.569Z,17.30
2023-04-29T23:17:40.148Z,17.02
2023-04-29T23:22:47.425Z,18.50
2023-04-29T23:27:53.077Z,21.23
2023-04-29T23:33:01.386Z,14.65
2023-04-29T23:38:06.832Z,15.25
2023-04-29T23:43:15.822Z,16.42
2023-04-29T23:48:23.979Z,16.27
2023-04-29T23:53:29.217Z,16.13
2023-04-29T23:58:34.537Z,17.70
